Time;durP1;ratioP1;P1;durP2;ratioP2;P2;SDS_P1;SDS_P2;PMS_P1;PMS_P2;Temp;Humidity;BMP_temperature;BMP_pressure;BME280_temperature;BME280_humidity;BME280_pressure;Samples;Min_cycle;Max_cycle;Signal;HPM_P1;HPM_P2
2022/04/13 00:02:17;;;;;;;6.67;5.87;;;;;;;;;;5012133;28;20731;-65
2022/04/13 00:04:45;;;;;;;6.93;6.03;;;;;;;;;;5022140;28;20234;-65
2022/04/13 00:07:12;;;;;;;6.73;5.90;;;;;;;;;;5025043;28;20218;-66
2022/04/13 00:09:40;;;;;;;6.10;5.50;;;;;;;;;;5017281;28;20218;-66
2022/04/13 00:12:08;;;;;;;6.63;5.90;;;;;;;;;;5017685;28;20658;-65
2022/04/13 00:14:35;;;;;;;7.43;6.13;;;;;;;;;;5022647;28;20289;-66
2022/04/13 00:17:02;;;;;;;7.83;6.60;;;;;;;;;;5015323;28;20215;-66
2022/04/13 00:19:30;;;;;;;8.00;6.57;;;;;;;;;;5017641;28;20221;-65
2022/04/13 00:21:57;;;;;;;8.87;6.23;;;;;;;;;;5023919;28;20203;-66
2022/04/13 00:24:25;;;;;;;7.27;6.07;;;;;;;;;;5017694;28;20755;-64
2022/04/13 00:26:53;;;;;;;8.77;6.20;;;;;;;;;;5014278;28;20661;-65
2022/04/13 00:29:20;;;;;;;6.83;6.13;;;;;;;;;;5026989;28;20249;-67
2022/04/13 00:31:48;;;;;;;8.50;6.67;;;;;;;;;;5021929;28;20203;-65
2022/04/13 00:34:15;;;;;;;7.50;6.50;;;;;;;;;;5029236;28;20305;-66
2022/04/13 00:36:42;;;;;;;7.97;6.70;;;;;;;;;;5022661;28;20210;-65
2022/04/13 00:39:10;;;;;;;11.80;7.30;;;;;;;;;;5021853;28;20214;-66
2022/04/13 00:41:37;;;;;;;7.73;6.93;;;;;;;;;;5011064;28;20225;-66
2022/04/13 00:44:06;;;;;;;8.10;6.20;;;;;;;;;;5016904;28;20235;-66
2022/04/13 00:46:33;;;;;;;10.87;6.47;;;;;;;;;;5015204;28;20490;-64
2022/04/13 00:49:02;;;;;;;8.07;6.73;;;;;;;;;;5013598;28;20575;-64
2022/04/13 00:51:30;;;;;;;9.40;7.67;;;;;;;;;;5023082;28;20195;-64
2022/04/13 00:53:58;;;;;;;7.27;6.47;;;;;;;;;;5025098;28;20281;-66
2022/04/13 00:56:28;;;;;;;9.80;6.90;;;;;;;;;;5022696;28;20206;-66
2022/04/13 00:59:01;;;;;;;9.67;6.70;;;;;;;;;;5011789;28;20222;-65
2022/04/13 01:01:28;;;;;;;7.57;6.77;;;;;;;;;;5017900;28;20210;-66
2022/04/13 01:03:57;;;;;;;9.40;7.33;;;;;;;;;;5018090;28;20643;-66
2022/04/13 01:06:27;;;;;;;14.30;8.10;;;;;;;;;;5015003;28;20291;-66
2022/04/13 01:08:55;;;;;;;13.53;7.43;;;;;;;;;;5019536;28;20669;-66
2022/04/13 01:11:24;;;;;;;8.83;6.77;;;;;;;;;;5028119;28;20210;-67
2022/04/13 01:13:54;;;;;;;10.07;7.17;;;;;;;;;;5023554;28;20235;-66
2022/04/13 01:16:23;;;;;;;17.47;10.83;;;;;;;;;;5020787;28;20211;-66
2022/04/13 01:18:50;;;;;;;27.67;14.33;;;;;;;;;;5024448;28;20286;-67
2022/04/13 01:21:20;;;;;;;28.57;16.97;;;;;;;;;;5023823;28;20208;-66
2022/04/13 01:23:50;;;;;;;51.70;25.50;;;;;;;;;;5009186;28;20285;-66
2022/04/13 01:26:17;;;;;;;59.03;30.43;;;;;;;;;;5004586;28;20619;-66
2022/04/13 01:28:45;;;;;;;61.00;30.90;;;;;;;;;;5004004;28;20203;-67
2022/04/13 01:31:12;;;;;;;48.63;25.47;;;;;;;;;;5017049;28;20222;-66
2022/04/13 01:33:40;;;;;;;35.87;19.33;;;;;;;;;;5033697;28;20227;-65
2022/04/13 01:36:07;;;;;;;44.07;22.97;;;;;;;;;;5023231;28;20211;-65
2022/04/13 01:38:35;;;;;;;41.80;22.90;;;;;;;;;;5017577;28;20211;-66
2022/04/13 01:41:02;;;;;;;37.60;21.10;;;;;;;;;;5018207;28;20223;-65
2022/04/13 01:43:29;;;;;;;35.43;19.23;;;;;;;;;;5015849;28;20231;-65
2022/04/13 01:45:57;;;;;;;35.60;19.23;;;;;;;;;;5006180;28;20204;-66
2022/04/13 01:48:24;;;;;;;11.87;8.93;;;;;;;;;;5013657;28;20208;-65
2022/04/13 01:50:52;;;;;;;17.57;11.37;;;;;;;;;;5018244;28;20203;-66
2022/04/13 01:53:19;;;;;;;15.23;10.27;;;;;;;;;;5019954;28;20231;-66
2022/04/13 01:55:47;;;;;;;20.03;12.40;;;;;;;;;;5019438;28;20207;-65
2022/04/13 01:58:14;;;;;;;26.20;12.80;;;;;;;;;;5008862;28;20242;-65
2022/04/13 02:00:41;;;;;;;19.97;12.57;;;;;;;;;;5020859;28;20791;-66
2022/04/13 02:03:09;;;;;;;20.43;13.83;;;;;;;;;;5015332;28;20291;-66
2022/04/13 02:05:37;;;;;;;19.47;12.63;;;;;;;;;;5019835;28;20729;-66
2022/04/13 02:08:04;;;;;;;16.47;10.83;;;;;;;;;;5021941;28;20206;-65
2022/04/13 02:10:31;;;;;;;16.60;10.63;;;;;;;;;;5021332;28;20203;-66
2022/04/13 02:12:59;;;;;;;15.27;10.83;;;;;;;;;;5007298;28;20245;-65
2022/04/13 02:15:27;;;;;;;17.00;11.30;;;;;;;;;;5037699;28;20307;-66
2022/04/13 02:17:54;;;;;;;17.33;11.37;;;;;;;;;;5018421;28;20631;-66
2022/04/13 02:20:22;;;;;;;17.10;11.37;;;;;;;;;;5030547;28;20210;-66
2022/04/13 02:22:49;;;;;;;12.63;9.10;;;;;;;;;;5019750;28;20256;-66
2022/04/13 02:25:17;;;;;;;13.60;10.27;;;;;;;;;;5018352;28;20218;-66
2022/04/13 02:27:44;;;;;;;12.70;9.60;;;;;;;;;;5018602;28;20203;-65
2022/04/13 02:30:11;;;;;;;10.00;8.03;;;;;;;;;;5015996;28;20206;-66
2022/04/13 02:32:40;;;;;;;7.33;6.33;;;;;;;;;;5020129;28;21181;-66
2022/04/13 02:35:07;;;;;;;7.80;6.33;;;;;;;;;;5022280;28;20297;-67
2022/04/13 02:37:35;;;;;;;9.67;5.93;;;;;;;;;;5021502;28;20657;-66
2022/04/13 02:40:03;;;;;;;6.50;5.10;;;;;;;;;;5029474;28;20199;-66
2022/04/13 02:42:34;;;;;;;7.27;4.77;;;;;;;;;;5022765;28;20258;-66
2022/04/13 02:45:01;;;;;;;6.37;5.10;;;;;;;;;;5024297;28;20202;-67
2022/04/13 02:47:29;;;;;;;7.10;5.37;;;;;;;;;;5010292;28;20254;-66
2022/04/13 02:49:56;;;;;;;6.97;5.87;;;;;;;;;;5019134;28;20203;-66
2022/04/13 02:52:25;;;;;;;8.50;5.90;;;;;;;;;;5022847;28;20243;-66
2022/04/13 02:54:52;;;;;;;7.07;5.50;;;;;;;;;;5018344;28;20272;-65
2022/04/13 02:57:20;;;;;;;9.50;7.30;;;;;;;;;;5018642;28;20248;-66
2022/04/13 02:59:48;;;;;;;19.03;11.57;;;;;;;;;;5018363;28;20267;-66
2022/04/13 03:02:16;;;;;;;16.20;11.47;;;;;;;;;;5009052;28;20258;-66
2022/04/13 03:04:48;;;;;;;17.27;11.30;;;;;;;;;;5017151;28;20238;-66
2022/04/13 03:07:16;;;;;;;13.00;8.93;;;;;;;;;;5018846;28;20213;-66
2022/04/13 03:09:43;;;;;;;11.90;8.87;;;;;;;;;;5023932;28;20669;-66
2022/04/13 03:12:12;;;;;;;11.17;8.43;;;;;;;;;;5016385;28;20245;-65
2022/04/13 03:14:40;;;;;;;12.20;8.37;;;;;;;;;;5022245;28;20719;-66
2022/04/13 03:17:08;;;;;;;10.90;8.27;;;;;;;;;;5024490;28;20691;-66
2022/04/13 03:19:35;;;;;;;11.60;8.50;;;;;;;;;;5024496;28;20738;-66
2022/04/13 03:22:03;;;;;;;10.73;8.27;;;;;;;;;;5030694;28;20203;-67
2022/04/13 03:24:30;;;;;;;9.83;8.27;;;;;;;;;;5004144;28;20668;-66
2022/04/13 03:26:57;;;;;;;9.77;7.20;;;;;;;;;;5022412;28;20250;-66
2022/04/13 03:29:25;;;;;;;7.73;6.80;;;;;;;;;;5027610;28;20217;-67
2022/04/13 03:31:52;;;;;;;8.67;7.03;;;;;;;;;;5017088;28;20624;-66
2022/04/13 03:34:22;;;;;;;8.67;6.47;;;;;;;;;;5019185;28;20797;-67
2022/04/13 03:36:50;;;;;;;8.43;6.67;;;;;;;;;;5007329;28;20355;-66
2022/04/13 03:39:17;;;;;;;7.67;6.77;;;;;;;;;;5016092;28;20564;-66
2022/04/13 03:41:45;;;;;;;8.77;6.40;;;;;;;;;;5020080;28;20218;-66
2022/04/13 03:44:12;;;;;;;8.77;7.77;;;;;;;;;;5021305;28;20802;-66
2022/04/13 03:46:40;;;;;;;10.80;9.20;;;;;;;;;;5016635;28;20204;-66
2022/04/13 03:49:08;;;;;;;15.87;12.00;;;;;;;;;;4997112;28;20258;-66
2022/04/13 03:51:36;;;;;;;16.93;12.57;;;;;;;;;;5033569;28;20199;-66
2022/04/13 03:54:03;;;;;;;12.83;9.90;;;;;;;;;;5019636;28;23035;-67
2022/04/13 03:56:31;;;;;;;14.63;10.53;;;;;;;;;;5021058;28;20203;-66
2022/04/13 03:58:58;;;;;;;12.47;9.47;;;;;;;;;;5021311;28;20670;-66
2022/04/13 04:01:26;;;;;;;15.67;12.37;;;;;;;;;;5013098;28;20212;-66
2022/04/13 04:03:54;;;;;;;17.93;11.17;;;;;;;;;;5010329;28;20242;-66
2022/04/13 04:06:23;;;;;;;16.47;9.10;;;;;;;;;;5011617;28;20281;-66
2022/04/13 04:08:51;;;;;;;14.60;7.17;;;;;;;;;;5015600;28;20203;-66
2022/04/13 04:11:18;;;;;;;13.33;9.03;;;;;;;;;;5021886;28;20199;-66
2022/04/13 04:13:46;;;;;;;15.13;10.03;;;;;;;;;;5021439;28;20837;-66
2022/04/13 04:16:13;;;;;;;16.80;11.20;;;;;;;;;;5011078;28;20732;-66
2022/04/13 04:18:40;;;;;;;16.33;11.67;;;;;;;;;;5020806;28;20305;-66
2022/04/13 04:21:09;;;;;;;16.13;12.30;;;;;;;;;;5025560;28;20265;-66
2022/04/13 04:23:37;;;;;;;17.70;13.33;;;;;;;;;;5029898;28;20649;-66
2022/04/13 04:26:04;;;;;;;21.80;14.60;;;;;;;;;;5025811;28;20210;-66
2022/04/13 04:28:31;;;;;;;20.63;16.50;;;;;;;;;;5017237;28;20211;-66
2022/04/13 04:30:59;;;;;;;17.70;13.63;;;;;;;;;;4994019;28;20214;-66
2022/04/13 04:33:26;;;;;;;15.97;10.90;;;;;;;;;;5023514;28;20226;-66
2022/04/13 04:35:54;;;;;;;12.47;8.47;;;;;;;;;;5025250;28;20198;-66
2022/04/13 04:38:21;;;;;;;10.53;7.40;;;;;;;;;;5019002;28;20199;-66
2022/04/13 04:40:48;;;;;;;8.33;6.80;;;;;;;;;;5029953;28;20346;-67
2022/04/13 04:43:16;;;;;;;6.80;6.10;;;;;;;;;;5016124;28;20227;-64
2022/04/13 04:45:43;;;;;;;8.87;6.90;;;;;;;;;;5026302;28;20199;-67
2022/04/13 04:48:10;;;;;;;7.83;7.03;;;;;;;;;;5024810;28;20230;-65
2022/04/13 04:50:38;;;;;;;9.93;7.57;;;;;;;;;;5026005;28;20205;-65
2022/04/13 04:53:05;;;;;;;9.77;6.53;;;;;;;;;;5018449;28;20231;-66
2022/04/13 04:55:33;;;;;;;8.10;6.20;;;;;;;;;;5028206;28;20203;-65
2022/04/13 04:58:02;;;;;;;15.33;8.73;;;;;;;;;;5013191;28;20219;-64
2022/04/13 05:00:35;;;;;;;14.17;8.07;;;;;;;;;;5033628;28;20203;-65
2022/04/13 05:03:02;;;;;;;12.70;8.57;;;;;;;;;;5031737;28;20227;-66
2022/04/13 05:05:31;;;;;;;9.03;7.53;;;;;;;;;;5021349;28;20241;-65
2022/04/13 05:07:58;;;;;;;9.00;7.37;;;;;;;;;;5038825;28;20232;-66
2022/04/13 05:10:25;;;;;;;11.50;9.37;;;;;;;;;;5019499;28;20549;-64
2022/04/13 05:12:56;;;;;;;16.97;11.70;;;;;;;;;;5026374;28;20629;-66
2022/04/13 05:15:25;;;;;;;14.97;9.17;;;;;;;;;;5021749;28;20235;-66
2022/04/13 05:17:52;;;;;;;14.53;11.03;;;;;;;;;;5021584;28;20203;-66
2022/04/13 05:20:20;;;;;;;11.63;10.37;;;;;;;;;;5022444;28;20219;-66
2022/04/13 05:22:47;;;;;;;12.63;8.70;;;;;;;;;;5020425;28;20340;-65
2022/04/13 05:25:15;;;;;;;10.77;8.00;;;;;;;;;;5024852;28;20238;-66
2022/04/13 05:27:43;;;;;;;12.27;8.30;;;;;;;;;;5026373;28;20627;-66
2022/04/13 05:30:13;;;;;;;9.13;7.43;;;;;;;;;;5020002;28;20207;-66
2022/04/13 05:32:47;;;;;;;9.47;7.60;;;;;;;;;;5019495;28;20613;-65
2022/04/13 05:35:15;;;;;;;10.33;7.90;;;;;;;;;;5019795;28;20261;-66
2022/04/13 05:37:42;;;;;;;13.80;9.40;;;;;;;;;;5021519;28;20207;-66
2022/04/13 05:40:10;;;;;;;11.10;9.40;;;;;;;;;;5020922;28;20206;-66
2022/04/13 05:42:37;;;;;;;12.43;9.07;;;;;;;;;;5025813;28;20215;-67
2022/04/13 05:45:05;;;;;;;13.43;8.87;;;;;;;;;;5028514;28;20237;-66
2022/04/13 05:47:33;;;;;;;12.00;8.47;;;;;;;;;;5026804;28;20627;-66
2022/04/13 05:50:00;;;;;;;9.87;7.93;;;;;;;;;;5017418;28;20199;-66
2022/04/13 05:52:27;;;;;;;12.50;7.70;;;;;;;;;;5016900;28;20196;-66
2022/04/13 05:54:55;;;;;;;7.77;6.53;;;;;;;;;;5021316;28;20219;-66
2022/04/13 05:57:22;;;;;;;8.70;5.80;;;;;;;;;;5015508;28;20257;-66
2022/04/13 05:59:50;;;;;;;9.10;6.57;;;;;;;;;;5007442;28;20431;-66
2022/04/13 06:02:17;;;;;;;11.53;6.50;;;;;;;;;;5021792;28;20203;-67
2022/04/13 06:04:44;;;;;;;8.90;6.13;;;;;;;;;;5024094;28;20796;-66
2022/04/13 06:07:12;;;;;;;10.17;5.83;;;;;;;;;;5023300;28;20258;-66
2022/04/13 06:09:39;;;;;;;11.27;6.13;;;;;;;;;;5019564;28;20656;-66
2022/04/13 06:12:07;;;;;;;9.67;6.07;;;;;;;;;;5013190;28;20203;-66
2022/04/13 06:14:35;;;;;;;11.23;6.53;;;;;;;;;;5025757;28;20231;-67
2022/04/13 06:17:03;;;;;;;7.00;6.17;;;;;;;;;;5021394;28;20666;-65
2022/04/13 06:19:30;;;;;;;6.90;6.10;;;;;;;;;;5023036;28;20206;-66
2022/04/13 06:21:58;;;;;;;8.20;5.87;;;;;;;;;;5019492;28;20208;-67
2022/04/13 06:24:25;;;;;;;6.97;5.77;;;;;;;;;;5020029;28;20246;-66
2022/04/13 06:26:52;;;;;;;6.00;5.20;;;;;;;;;;5025194;28;20625;-66
2022/04/13 06:29:20;;;;;;;5.63;5.13;;;;;;;;;;5017858;28;20254;-66
2022/04/13 06:31:47;;;;;;;9.97;6.40;;;;;;;;;;5025584;28;20244;-65
2022/04/13 06:34:16;;;;;;;8.20;5.67;;;;;;;;;;5015741;28;20609;-66
2022/04/13 06:36:43;;;;;;;10.37;5.50;;;;;;;;;;5022410;28;20579;-66
2022/04/13 06:39:11;;;;;;;6.73;4.93;;;;;;;;;;5021767;28;20211;-66
2022/04/13 06:41:38;;;;;;;8.80;5.27;;;;;;;;;;5024923;28;20225;-66
2022/04/13 06:44:05;;;;;;;7.97;5.20;;;;;;;;;;5029362;28;20245;-66
2022/04/13 06:46:36;;;;;;;7.00;5.40;;;;;;;;;;5023266;28;20195;-66
2022/04/13 06:49:04;;;;;;;7.83;5.30;;;;;;;;;;5007785;28;20214;-66
2022/04/13 06:51:33;;;;;;;8.07;5.60;;;;;;;;;;5018979;28;20253;-66
2022/04/13 06:54:00;;;;;;;6.17;5.57;;;;;;;;;;5016564;28;20230;-66
2022/04/13 06:56:27;;;;;;;7.60;5.20;;;;;;;;;;5025303;28;20246;-66
2022/04/13 06:58:55;;;;;;;6.10;4.30;;;;;;;;;;5021300;28;20219;-67
2022/04/13 07:01:22;;;;;;;7.30;4.07;;;;;;;;;;5022689;28;20783;-66
2022/04/13 07:03:50;;;;;;;6.30;4.40;;;;;;;;;;5013274;28;20223;-67
2022/04/13 07:06:18;;;;;;;7.47;3.97;;;;;;;;;;5015745;28;20708;-66
2022/04/13 07:09:05;;;;;;;5.20;4.27;;;;;;;;;;5013467;28;20206;-66
2022/04/13 07:11:32;;;;;;;6.40;5.03;;;;;;;;;;5009689;28;20199;-65
2022/04/13 07:14:00;;;;;;;8.73;4.90;;;;;;;;;;5013398;28;20238;-66
2022/04/13 07:16:27;;;;;;;5.57;4.40;;;;;;;;;;5014742;28;20290;-67
2022/04/13 07:18:55;;;;;;;5.43;3.73;;;;;;;;;;5008223;28;20818;-67
2022/04/13 07:21:22;;;;;;;5.63;4.00;;;;;;;;;;5020809;28;20221;-67
2022/04/13 07:24:10;;;;;;;4.53;3.40;;;;;;;;;;5017294;28;20215;-66
2022/04/13 07:26:39;;;;;;;5.90;3.30;;;;;;;;;;5017914;28;20304;-66
2022/04/13 07:29:07;;;;;;;6.00;3.50;;;;;;;;;;5042998;28;20207;-67
2022/04/13 07:31:34;;;;;;;6.07;3.77;;;;;;;;;;5012125;28;20715;-66
2022/04/13 07:34:02;;;;;;;4.20;3.50;;;;;;;;;;5015948;28;20227;-66
2022/04/13 07:36:30;;;;;;;4.30;3.43;;;;;;;;;;5013614;28;20342;-67
2022/04/13 07:38:57;;;;;;;4.80;3.63;;;;;;;;;;5020416;28;20249;-66
2022/04/13 07:41:24;;;;;;;4.50;3.23;;;;;;;;;;5024293;28;20271;-66
2022/04/13 07:43:52;;;;;;;5.55;3.20;;;;;;;;;;5021306;28;20594;-66
2022/04/13 07:46:19;;;;;;;5.05;3.65;;;;;;;;;;5023755;28;20734;-66
2022/04/13 07:48:47;;;;;;;4.75;3.30;;;;;;;;;;5012519;28;20246;-66
2022/04/13 07:51:14;;;;;;;7.15;3.83;;;;;;;;;;5024054;28;20254;-66
2022/04/13 07:53:42;;;;;;;7.45;4.18;;;;;;;;;;5020912;28;20629;-66
2022/04/13 07:56:09;;;;;;;7.82;4.00;;;;;;;;;;5020520;28;20203;-65
2022/04/13 07:58:37;;;;;;;6.18;4.10;;;;;;;;;;5020989;28;20213;-67
2022/04/13 08:01:04;;;;;;;5.82;3.90;;;;;;;;;;5025109;28;20207;-66
2022/04/13 08:03:32;;;;;;;9.05;4.22;;;;;;;;;;5027452;28;20637;-67
2022/04/13 08:06:03;;;;;;;5.85;3.53;;;;;;;;;;5021121;28;20238;-67
2022/04/13 08:08:30;;;;;;;4.97;3.78;;;;;;;;;;5024656;28;20295;-67
2022/04/13 08:10:58;;;;;;;6.50;3.85;;;;;;;;;;5022781;28;20206;-66
2022/04/13 08:13:25;;;;;;;6.90;3.47;;;;;;;;;;5017340;28;20227;-66
2022/04/13 08:16:12;;;;;;;6.15;3.42;;;;;;;;;;5023355;28;20227;-67
2022/04/13 08:18:41;;;;;;;4.30;2.97;;;;;;;;;;5023584;28;20873;-67
2022/04/13 08:21:08;;;;;;;5.70;3.70;;;;;;;;;;5027154;28;20199;-67
2022/04/13 08:23:36;;;;;;;4.07;2.58;;;;;;;;;;5025386;28;20226;-67
2022/04/13 08:26:03;;;;;;;3.45;2.75;;;;;;;;;;5022307;28;20317;-66
2022/04/13 08:28:31;;;;;;;3.83;2.90;;;;;;;;;;5021241;28;20694;-65
2022/04/13 08:30:58;;;;;;;5.25;2.83;;;;;;;;;;5022681;28;20257;-66
2022/04/13 08:33:25;;;;;;;4.35;2.97;;;;;;;;;;5019595;28;20254;-67
2022/04/13 08:35:53;;;;;;;4.15;3.05;;;;;;;;;;5021403;28;20203;-67
2022/04/13 08:38:20;;;;;;;5.70;2.90;;;;;;;;;;5023506;28;20248;-67
2022/04/13 08:41:08;;;;;;;3.15;2.80;;;;;;;;;;5023980;28;20219;-67
2022/04/13 08:43:48;;;;;;;3.63;2.40;;;;;;;;;;4990342;28;20445;-66
2022/04/13 08:46:19;;;;;;;5.15;2.78;;;;;;;;;;5022996;28;20227;-66
2022/04/13 08:48:49;;;;;;;3.92;2.42;;;;;;;;;;5007482;28;20209;-66
2022/04/13 08:51:17;;;;;;;5.10;2.20;;;;;;;;;;5017833;28;20637;-66
2022/04/13 08:53:45;;;;;;;5.32;2.50;;;;;;;;;;5017010;28;20227;-67
2022/04/13 08:56:15;;;;;;;4.28;2.30;;;;;;;;;;5013527;28;20207;-67
2022/04/13 08:58:49;;;;;;;3.33;2.33;;;;;;;;;;5022917;28;20203;-67
2022/04/13 09:01:24;;;;;;;6.70;2.75;;;;;;;;;;5022773;28;20206;-67
2022/04/13 09:03:52;;;;;;;3.28;2.38;;;;;;;;;;5032029;28;20601;-67
2022/04/13 09:06:21;;;;;;;4.53;2.67;;;;;;;;;;5028077;28;20696;-66
2022/04/13 09:08:50;;;;;;;2.83;2.40;;;;;;;;;;5012083;28;20203;-67
2022/04/13 09:11:22;;;;;;;5.28;2.30;;;;;;;;;;5041981;28;20254;-67
2022/04/13 09:13:50;;;;;;;7.65;2.88;;;;;;;;;;5031329;28;20710;-67
2022/04/13 09:16:18;;;;;;;3.42;2.15;;;;;;;;;;5034799;28;20238;-66
2022/04/13 09:18:46;;;;;;;5.55;2.17;;;;;;;;;;5019639;28;20293;-66
2022/04/13 09:21:17;;;;;;;3.60;2.55;;;;;;;;;;5015840;28;20242;-67
2022/04/13 09:23:44;;;;;;;3.05;2.28;;;;;;;;;;5020651;28;20589;-67
2022/04/13 09:26:13;;;;;;;3.42;2.50;;;;;;;;;;5025107;28;20292;-67
2022/04/13 09:28:41;;;;;;;5.38;2.72;;;;;;;;;;5014305;28;20207;-66
2022/04/13 09:31:09;;;;;;;3.35;2.80;;;;;;;;;;5021723;28;20253;-66
2022/04/13 09:33:36;;;;;;;3.65;2.78;;;;;;;;;;5028511;28;20419;-66
2022/04/13 09:36:04;;;;;;;5.38;3.05;;;;;;;;;;5022618;28;20215;-66
2022/04/13 09:38:32;;;;;;;27.17;5.38;;;;;;;;;;5019772;28;20202;-65
2022/04/13 09:41:10;;;;;;;3.72;2.97;;;;;;;;;;5022929;28;20697;-67
2022/04/13 09:43:38;;;;;;;4.32;2.83;;;;;;;;;;5018504;28;20258;-67
2022/04/13 09:46:06;;;;;;;6.03;3.50;;;;;;;;;;5018456;28;20238;-67
2022/04/13 09:48:40;;;;;;;3.25;2.70;;;;;;;;;;5024433;28;20211;-68
2022/04/13 09:51:08;;;;;;;3.03;2.60;;;;;;;;;;5033114;28;20207;-67
2022/04/13 09:53:41;;;;;;;8.68;2.85;;;;;;;;;;5016208;28;20705;-67
2022/04/13 09:56:16;;;;;;;3.08;2.75;;;;;;;;;;5028284;28;20691;-67
2022/04/13 09:58:44;;;;;;;3.75;2.60;;;;;;;;;;5031247;28;20206;-66
2022/04/13 10:01:12;;;;;;;4.22;2.50;;;;;;;;;;5022506;28;20207;-66
2022/04/13 10:03:53;;;;;;;4.38;2.30;;;;;;;;;;5022119;28;20230;-66
2022/04/13 10:06:27;;;;;;;2.67;2.03;;;;;;;;;;5024562;28;20227;-67
2022/04/13 10:09:06;;;;;;;1.98;1.77;;;;;;;;;;5026053;28;20205;-66
2022/04/13 10:11:33;;;;;;;2.45;1.95;;;;;;;;;;5021340;28;20198;-66
2022/04/13 10:14:07;;;;;;;3.85;1.80;;;;;;;;;;5019438;28;20649;-67
2022/04/13 10:16:35;;;;;;;3.92;1.80;;;;;;;;;;5023262;28;20572;-67
2022/04/13 10:19:04;;;;;;;2.28;1.60;;;;;;;;;;5023446;28;20301;-66
2022/04/13 10:21:36;;;;;;;4.75;1.60;;;;;;;;;;5025194;28;20637;-67
2022/04/13 10:24:05;;;;;;;1.73;1.30;;;;;;;;;;5017871;28;20472;-66
2022/04/13 10:26:32;;;;;;;7.05;1.70;;;;;;;;;;5015131;28;20223;-67
2022/04/13 10:28:59;;;;;;;5.07;1.92;;;;;;;;;;5011983;28;20257;-67
2022/04/13 10:31:27;;;;;;;3.22;1.70;;;;;;;;;;5014126;28;20250;-68
2022/04/13 10:33:56;;;;;;;4.60;1.65;;;;;;;;;;5017716;28;20618;-67
2022/04/13 10:36:23;;;;;;;4.78;1.42;;;;;;;;;;5009763;28;20230;-67
2022/04/13 10:38:51;;;;;;;4.38;1.58;;;;;;;;;;5016352;28;20206;-66
2022/04/13 10:41:21;;;;;;;3.83;1.75;;;;;;;;;;5003339;28;20226;-67
2022/04/13 10:43:51;;;;;;;2.72;1.67;;;;;;;;;;5008396;28;20230;-67
2022/04/13 10:46:20;;;;;;;2.53;1.58;;;;;;;;;;5012342;28;20232;-68
2022/04/13 10:48:54;;;;;;;3.90;1.60;;;;;;;;;;5028071;28;20824;-66
2022/04/13 10:51:23;;;;;;;3.40;1.70;;;;;;;;;;5014477;28;20225;-67
2022/04/13 10:53:52;;;;;;;5.18;2.00;;;;;;;;;;5003969;28;20227;-66
2022/04/13 10:56:21;;;;;;;2.88;1.83;;;;;;;;;;5004130;28;20950;-68
2022/04/13 10:58:48;;;;;;;5.07;1.90;;;;;;;;;;5013672;28;20211;-67
2022/04/13 11:01:19;;;;;;;3.22;1.60;;;;;;;;;;5018146;28;20203;-67
2022/04/13 11:03:47;;;;;;;4.13;1.20;;;;;;;;;;5018628;28;20652;-67
2022/04/13 11:06:14;;;;;;;2.15;1.42;;;;;;;;;;5015974;28;20309;-67
2022/04/13 11:08:57;;;;;;;3.58;1.80;;;;;;;;;;5016635;28;20449;-66
2022/04/13 11:11:26;;;;;;;5.55;2.00;;;;;;;;;;5015031;28;20293;-67
2022/04/13 11:13:54;;;;;;;4.18;1.52;;;;;;;;;;5014695;28;20764;-67
2022/04/13 11:16:25;;;;;;;3.92;1.70;;;;;;;;;;5022426;28;20586;-67
2022/04/13 11:19:05;;;;;;;4.72;1.80;;;;;;;;;;5014407;28;20569;-66
2022/04/13 11:21:34;;;;;;;4.80;1.73;;;;;;;;;;5013356;28;20226;-67
2022/04/13 11:24:01;;;;;;;7.75;2.03;;;;;;;;;;5030689;28;20630;-66
2022/04/13 11:26:35;;;;;;;3.20;1.70;;;;;;;;;;5025784;28;20211;-67
2022/04/13 11:29:17;;;;;;;4.25;1.60;;;;;;;;;;5029006;28;20272;-67
2022/04/13 11:32:00;;;;;;;6.15;2.03;;;;;;;;;;5020388;28;20212;-66
2022/04/13 11:34:28;;;;;;;4.13;1.80;;;;;;;;;;5023308;28;20281;-67
2022/04/13 11:37:00;;;;;;;5.22;1.80;;;;;;;;;;5017322;28;20569;-67
2022/04/13 11:39:42;;;;;;;7.18;1.90;;;;;;;;;;5026434;28;20210;-67
2022/04/13 11:42:25;;;;;;;11.20;2.10;;;;;;;;;;5026096;28;20225;-67
2022/04/13 11:45:04;;;;;;;139.43;14.30;;;;;;;;;;5023377;28;20668;-67
2022/04/13 11:47:47;;;;;;;5.60;2.08;;;;;;;;;;5034221;28;20955;-67
2022/04/13 11:50:14;;;;;;;5.40;2.00;;;;;;;;;;5026534;28;20206;-67
2022/04/13 11:52:50;;;;;;;4.95;1.95;;;;;;;;;;5021418;28;20751;-67
2022/04/13 11:55:21;;;;;;;5.32;1.80;;;;;;;;;;5025710;28;20691;-67
2022/04/13 11:58:09;;;;;;;5.15;1.88;;;;;;;;;;5021359;28;20289;-66
2022/04/13 12:00:54;;;;;;;6.30;1.60;;;;;;;;;;5017155;28;20653;-67
2022/04/13 12:03:30;;;;;;;6.10;1.80;;;;;;;;;;5028933;28;20238;-67
2022/04/13 12:06:08;;;;;;;3.17;1.50;;;;;;;;;;5033380;28;20234;-67
2022/04/13 12:08:38;;;;;;;7.63;1.92;;;;;;;;;;5027880;28;20203;-68
2022/04/13 12:11:14;;;;;;;6.60;1.58;;;;;;;;;;5015928;28;20669;-66
2022/04/13 12:13:49;;;;;;;4.22;1.67;;;;;;;;;;5023206;28;20230;-67
2022/04/13 12:16:18;;;;;;;7.47;1.70;;;;;;;;;;5025983;28;20708;-66
2022/04/13 12:18:46;;;;;;;5.03;1.80;;;;;;;;;;5023509;28;20207;-67
2022/04/13 12:21:15;;;;;;;4.50;1.45;;;;;;;;;;5019806;28;20203;-67
2022/04/13 12:23:43;;;;;;;5.40;1.45;;;;;;;;;;5026065;28;20229;-67
2022/04/13 12:26:11;;;;;;;7.00;1.75;;;;;;;;;;5028294;28;20226;-67
2022/04/13 12:28:38;;;;;;;6.93;1.67;;;;;;;;;;5025194;28;20203;-66
2022/04/13 12:31:07;;;;;;;4.43;1.50;;;;;;;;;;5025166;28;20212;-67
2022/04/13 12:33:36;;;;;;;3.95;1.50;;;;;;;;;;5021683;28;20846;-66
2022/04/13 12:36:07;;;;;;;4.30;1.65;;;;;;;;;;5024001;28;20759;-65
2022/04/13 12:38:54;;;;;;;5.57;1.27;;;;;;;;;;5023937;28;20266;-66
2022/04/13 12:41:27;;;;;;;3.15;1.55;;;;;;;;;;5015453;28;20345;-67
2022/04/13 12:44:03;;;;;;;5.45;1.63;;;;;;;;;;5018741;28;20231;-67
2022/04/13 12:46:31;;;;;;;6.20;1.63;;;;;;;;;;5021752;28;20272;-67
2022/04/13 12:48:59;;;;;;;4.22;1.73;;;;;;;;;;5019068;28;20226;-67
2022/04/13 12:51:32;;;;;;;4.32;1.60;;;;;;;;;;5011393;28;20210;-66
2022/04/13 12:54:02;;;;;;;5.05;1.35;;;;;;;;;;5022048;28;20231;-66
2022/04/13 12:56:32;;;;;;;4.85;1.52;;;;;;;;;;5035465;28;20213;-66
2022/04/13 12:58:59;;;;;;;4.63;1.40;;;;;;;;;;5020293;28;20215;-65
2022/04/13 13:01:37;;;;;;;7.65;1.48;;;;;;;;;;5009417;28;20222;-66
2022/04/13 13:04:08;;;;;;;8.02;2.00;;;;;;;;;;5020069;28;20326;-66
2022/04/13 13:06:37;;;;;;;9.07;1.65;;;;;;;;;;5013290;28;20228;-67
2022/04/13 13:09:05;;;;;;;6.35;1.75;;;;;;;;;;5016180;28;20215;-66
2022/04/13 13:11:33;;;;;;;8.02;2.17;;;;;;;;;;5021692;28;20198;-66
2022/04/13 13:14:05;;;;;;;17.70;3.85;;;;;;;;;;5018484;28;20226;-65
2022/04/13 13:16:34;;;;;;;4.22;2.03;;;;;;;;;;5009290;28;20273;-67
2022/04/13 13:19:23;;;;;;;7.07;2.30;;;;;;;;;;5022301;28;20203;-66
2022/04/13 13:22:12;;;;;;;16.73;2.60;;;;;;;;;;5022142;28;20210;-66
2022/04/13 13:24:50;;;;;;;5.13;1.52;;;;;;;;;;5023341;28;20238;-65
2022/04/13 13:27:25;;;;;;;7.75;1.70;;;;;;;;;;5025236;28;20281;-66
2022/04/13 13:29:54;;;;;;;19.10;3.38;;;;;;;;;;5025249;28;20207;-66
2022/04/13 13:32:22;;;;;;;18.50;3.63;;;;;;;;;;5031483;28;20207;-67
2022/04/13 13:34:57;;;;;;;5.88;2.00;;;;;;;;;;5024751;28;20084;-65
2022/04/13 13:37:44;;;;;;;6.70;2.28;;;;;;;;;;5018965;28;20681;-68
2022/04/13 13:40:30;;;;;;;6.00;2.72;;;;;;;;;;5025108;28;20601;-65
2022/04/13 13:42:58;;;;;;;5.57;2.40;;;;;;;;;;5019763;28;20273;-68
2022/04/13 13:45:30;;;;;;;3.65;1.95;;;;;;;;;;5022560;28;20199;-67
2022/04/13 13:47:57;;;;;;;8.38;2.33;;;;;;;;;;5016092;28;20213;-66
2022/04/13 13:50:25;;;;;;;6.15;2.83;;;;;;;;;;5019430;28;20203;-66
2022/04/13 13:52:52;;;;;;;6.47;2.53;;;;;;;;;;5016349;28;23032;-68
2022/04/13 13:55:24;;;;;;;9.85;2.45;;;;;;;;;;5020601;28;20211;-66
2022/04/13 13:57:52;;;;;;;5.88;2.30;;;;;;;;;;5018543;28;20581;-67
2022/04/13 14:00:20;;;;;;;7.85;2.47;;;;;;;;;;5016078;28;20206;-65
2022/04/13 14:02:52;;;;;;;5.05;2.42;;;;;;;;;;5018065;28;20211;-65
2022/04/13 14:05:21;;;;;;;215.88;19.73;;;;;;;;;;5016943;28;20241;-65
2022/04/13 14:07:49;;;;;;;7.55;2.35;;;;;;;;;;5012532;28;20226;-66
2022/04/13 14:10:17;;;;;;;6.20;2.13;;;;;;;;;;5014882;28;20756;-67
2022/04/13 14:12:44;;;;;;;8.18;2.70;;;;;;;;;;5012166;28;20211;-66
2022/04/13 14:15:12;;;;;;;5.32;2.17;;;;;;;;;;5012030;28;20234;-65
2022/04/13 14:17:43;;;;;;;10.10;2.33;;;;;;;;;;5022278;28;20703;-65
2022/04/13 14:20:11;;;;;;;7.35;2.47;;;;;;;;;;5010086;28;20265;-65
2022/04/13 14:22:39;;;;;;;4.50;2.13;;;;;;;;;;5009224;28;20619;-66
2022/04/13 14:25:08;;;;;;;21.95;4.45;;;;;;;;;;5020977;28;20493;-67
2022/04/13 14:27:38;;;;;;;7.80;2.63;;;;;;;;;;5004344;28;20226;-68
2022/04/13 14:30:09;;;;;;;9.10;2.80;;;;;;;;;;5011394;28;20570;-65
2022/04/13 14:32:37;;;;;;;7.05;2.70;;;;;;;;;;5020762;28;20213;-66
2022/04/13 14:35:07;;;;;;;6.15;2.53;;;;;;;;;;5019397;28;20208;-66
2022/04/13 14:37:36;;;;;;;5.18;2.50;;;;;;;;;;5021717;28;20206;-67
2022/04/13 14:40:05;;;;;;;4.88;2.55;;;;;;;;;;5012267;28;20628;-65
2022/04/13 14:42:32;;;;;;;7.47;2.50;;;;;;;;;;5004268;28;20731;-65
2022/04/13 14:45:00;;;;;;;5.13;2.42;;;;;;;;;;5025321;28;20234;-65
2022/04/13 14:47:28;;;;;;;6.25;3.30;;;;;;;;;;5022610;28;20235;-66
2022/04/13 14:49:56;;;;;;;7.47;2.90;;;;;;;;;;5016900;28;20211;-66
2022/04/13 14:52:23;;;;;;;8.55;2.53;;;;;;;;;;5024587;28;20203;-66